< Typhoon 200319 2003 Season Typhoon 200321 >
Typhoon 200320 (NEPARTAK)
General InformationTrack Information on Google MapsDetailed Wind InformationAccess Analytics MapList of All Images || NewsDisaster Info.WeblogResourceGoogle EarthGE AnimationAtom FeedGeoJSON
Detalied Best Track (Time Zone = UTC)
Year Month Day Hour Lat. Long. Pressure (hPa) Wind (kt) Class Image Chart
2003 11 11 18 10.8 139.5 1004 0 2 Image Chart
2003 11 12 00 11.3 138.0 1004 0 2 Image Chart
2003 11 12 06 11.8 136.5 1002 0 2 Image Chart
2003 11 12 12 12.0 133.8 1000 0 2 Image Chart
2003 11 12 18 12.1 131.8 998 35 3 Image Chart
2003 11 13 00 12.3 130.4 992 40 3 Image Chart
2003 11 13 06 12.6 128.2 992 40 3 Image Chart
2003 11 13 12 12.6 126.2 985 50 4 Image Chart
2003 11 13 18 12.2 125.0 990 45 3 Image Chart
2003 11 14 00 11.8 123.7 990 45 3 Image Chart
2003 11 14 06 12.0 121.9 990 45 3 Image Chart
2003 11 14 12 12.2 120.7 990 45 3 Image Chart
2003 11 14 18 12.3 119.1 985 50 4 Image Chart
2003 11 15 00 12.6 117.8 980 55 4 Image Chart
2003 11 15 06 13.4 116.8 975 60 4 Image Chart
2003 11 15 12 13.8 115.8 975 60 4 Image Chart
2003 11 15 18 14.0 114.7 975 60 4 Image Chart
2003 11 16 00 14.2 113.9 975 60 4 Image Chart
2003 11 16 06 14.6 113.2 975 60 4 Image Chart
2003 11 16 12 15.0 112.1 975 60 4 Image Chart
2003 11 16 18 15.5 111.3 970 65 5 Image Chart
2003 11 17 00 16.1 110.5 975 60 4 Image Chart
2003 11 17 06 16.3 109.9 975 60 4 Image Chart
2003 11 17 12 16.8 109.6 975 60 4 Image Chart
2003 11 17 18 17.4 109.1 980 60 4 Image Chart
2003 11 18 00 18.0 108.6 985 55 4 Image Chart
2003 11 18 06 18.6 108.4 990 55 4 Image Chart
2003 11 18 12 19.3 108.5 996 45 3 Image Chart
2003 11 18 18 19.7 108.6 1000 40 3 Image Chart
2003 11 19 00 20.3 108.8 1000 35 3 Image Chart
2003 11 19 06 21.0 109.0 1004 0 2 Image Chart
2003 11 19 12 21.3 109.7 1008 0 2 Image Chart
Japan Meteorological Agency Best Track Data | Correction Date : 2004-02-17
< Typhoon 200319 2003 Season Typhoon 200321 >

Help